Addington, OK

12:14 AM CDT on October 23, 2014 (GMT -0500)
Halliburton | Change Station
CLOSE
Current Station
Airport
Location: Duncan,
Elevation: 1112 ft
Nearby Weather Stations

Elev 1112 ft 34.48 °N, 97.96 °W | Updated 19 minutes ago

Overcast
Overcast
63 °F
Feels Like 63 °F
N
0
Wind Variable Wind from North

Today
High -- | Low -- °F
--% Chance of Precip.
Yesterday
High -- | Low -- °F
Precip. -- in
7:43 AM 6:48 PM
Waning Crescent, 1% visible
Pressure 30.11 in
Visibility 5.0 miles
Clouds Scattered Clouds 9500 ft
Dew Point 63 °F
Humidity 100%
Rainfall 0.01 in
Snow Depth Not available.
UV 0 out of 12
Pollen 5.50 out of 12
Air Quality Not available.
Flu Activity No Activity
METAR KDUC 230455Z AUTO 00000KT 5SM BR SCT095 17/17 A3011 RMK AO2

More Conditions Fewer Conditions

Pressure 30.11 in
Visibility 5.0 miles
Clouds Scattered Clouds 9500 ft
Dew Point 63 °F
Humidity 100%
Rainfall 0.01 in
Snow Depth Not available.
UV 0 out of 12
Pollen 5.50 out of 12
Air Quality Not available.
Flu Activity No Activity
METAR KDUC 230455Z AUTO 00000KT 5SM BR SCT095 17/17 A3011 RMK AO2

More Conditions Fewer Conditions

10-Day Weather Forecast

Almanac

Astronomy

Oct. 23, 2014 Rise Set
Actual Time 7:43 AM CDT 6:48 PM CDT
Civil Twilight 7:18 AM CDT 7:13 PM CDT
Nautical Twilight 6:48 AM CDT 7:42 PM CDT
Astronomical Twilight 6:19 AM CDT 8:11 PM CDT
Moon 7:25 AM CDT 6:50 PM CDT
Length of Visible Light 11h 55m
Length of Day
11h 04m
Tomorrow will be 1m 58s shorter.
Waning Crescent, 1% of the Moon is Illuminated
Today
Waning Crescent
Oct 23
New
Oct 30
First Quarter
Nov 6
Full
Nov 14
Last Quarter

Today's Extremes

State Highs State Lows

Community

WunderPhotos

Upload Photos

1,764,170 photos uploaded!

Nearby

Snow Depth

Station Depth Elevation
No new snow has been reported.

Earthquake Activity

City Distance Mag. Time & Date
Luther, Oklahoma 103 miles 2.5 10:36 PM CDT
2014-10-22
Crescent, Oklahoma 131 miles 2.7 9:58 PM CDT
2014-10-22
Langston, Oklahoma 123 miles 2.9 10:03 AM CDT
2014-10-22
Langston, Oklahoma 123 miles 2.6 8:31 AM CDT
2014-10-22
Minimum magnitude displayed is 2.5.

Coastal Water Temperatures

Place Temperature
No Stations Reporting

Nearby Weather Stations